Saughall, United Kingdom

8:22 PM BST on September 01, 2014 (GMT +0100)
East Kibride | Change Station
CLOSE
Current Station
Personal Weather Station
Location: East Kilbride, SOUTH LANARKSHIRE
Elevation: 600 ft
Nearby Weather Stations

Elev 600 ft 55.74 °N, 4.21 °W | Updated 5 seconds ago

Mostly Cloudy
Mostly Cloudy
55.4 °F
Feels Like 55.4 °F
N
0.0
Wind Variable Wind from West
Gusts 0.0 mph

Today
High -- | Low -- °F
--% Chance of Precip.
Yesterday
High -- | Low -- °F
Precip. -- in
6:21 AM 8:10 PM
Waxing Crescent, 43% visible
Pressure 30.18 in
Visibility 6.2 miles
Clouds Mostly Cloudy 3600 ft
Dew Point 51 °F
Humidity 84%
Rainfall 0.00 in
Snow Depth Not available.
UV 0.0 out of 12
Pollen Not available.
Air Quality Not available.
Flu Activity Not available.
METAR EGPK 011850Z 32008KT 9999 BKN036 15/10 Q1022

More Conditions Fewer Conditions

Pressure 30.18 in
Visibility 6.2 miles
Clouds Mostly Cloudy 3600 ft
Dew Point 51 °F
Humidity 84%
Rainfall 0.00 in
Snow Depth Not available.
UV 0.0 out of 12
Pollen Not available.
Air Quality Not available.
Flu Activity Not available.
METAR EGPK 011850Z 32008KT 9999 BKN036 15/10 Q1022

More Conditions Fewer Conditions

10-Day Weather Forecast

Almanac

Astronomy

Sep. 01, 2014 Rise Set
Actual Time 6:21 AM BST 8:10 PM BST
Civil Twilight 5:42 AM BST 8:49 PM BST
Nautical Twilight 4:53 AM BST 9:38 PM BST
Astronomical Twilight 3:56 AM BST 10:34 PM BST
Moon 2:03 PM BST 10:49 PM BST
Length of Visible Light 15h 07m
Length of Day
13h 49m
Tomorrow will be 4m 28s shorter.
Waxing Crescent, 43% of the Moon is Illuminated
Today
Waxing Crescent
Sep 2
First Quarter
Sep 8
Full
Sep 15
Last Quarter
Sep 24
New

Today's Extremes

Country Highs Country Lows

Community

WunderPhotos

Upload Photos

1,749,378 photos uploaded!

WunderBlogs® & News

Nearby

Snow Depth

Not available.

Earthquake Activity

City Distance Mag. Time & Date
No recent earthquake activity has been reported nearby.
Minimum magnitude displayed is 2.5.

Coastal Water Temperatures

Place Temperature
No Stations Reporting

Nearby Weather Stations